createdAt,value
2022-10-26T00:00:20.546Z,2
2022-10-26T00:01:20.580Z,1
2022-10-26T00:02:20.708Z,2
2022-10-26T00:03:20.544Z,2
2022-10-26T00:04:20.585Z,2
2022-10-26T00:05:20.581Z,2
2022-10-26T00:06:20.581Z,2
2022-10-26T00:07:20.546Z,2
2022-10-26T00:08:20.594Z,2
2022-10-26T00:09:20.608Z,2
2022-10-26T00:10:20.567Z,2
2022-10-26T00:11:20.605Z,2
2022-10-26T00:12:20.643Z,2
2022-10-26T00:13:20.634Z,2
2022-10-26T00:14:20.581Z,2
2022-10-26T00:15:20.540Z,2
2022-10-26T00:16:20.533Z,2
2022-10-26T00:17:20.569Z,2
2022-10-26T00:18:20.534Z,2
2022-10-26T00:19:20.669Z,2
2022-10-26T00:20:20.676Z,2
2022-10-26T00:21:20.575Z,2
2022-10-26T00:22:20.597Z,2
2022-10-26T00:23:20.597Z,2
2022-10-26T00:24:20.543Z,2
2022-10-26T00:25:20.615Z,2
2022-10-26T00:26:20.544Z,2
2022-10-26T00:27:20.600Z,2
2022-10-26T00:28:20.620Z,2
2022-10-26T00:29:20.642Z,2
2022-10-26T00:30:20.632Z,2
2022-10-26T00:31:20.570Z,2
2022-10-26T00:32:20.555Z,2
2022-10-26T00:33:20.543Z,2
2022-10-26T00:34:20.559Z,2
2022-10-26T00:35:23.241Z,2
2022-10-26T00:36:20.539Z,2
2022-10-26T00:37:20.545Z,2
2022-10-26T00:38:20.542Z,2
2022-10-26T00:39:20.531Z,2
2022-10-26T00:40:20.553Z,2
2022-10-26T00:41:20.582Z,2
2022-10-26T00:42:20.573Z,2
2022-10-26T00:43:20.593Z,2
2022-10-26T00:44:20.548Z,2
2022-10-26T00:45:20.555Z,2
2022-10-26T00:46:20.532Z,1
2022-10-26T00:47:20.555Z,2
2022-10-26T00:48:20.546Z,2
2022-10-26T00:49:20.557Z,2
2022-10-26T00:50:20.615Z,1
2022-10-26T00:51:20.581Z,2
2022-10-26T00:52:20.552Z,2
2022-10-26T00:53:20.674Z,2
2022-10-26T00:54:20.551Z,1
2022-10-26T00:55:20.557Z,2
2022-10-26T00:56:20.575Z,2
2022-10-26T00:57:20.562Z,2
2022-10-26T00:58:20.583Z,2
2022-10-26T00:59:20.589Z,2
2022-10-26T01:00:20.556Z,2
2022-10-26T01:01:20.593Z,2
2022-10-26T01:02:20.543Z,2
2022-10-26T01:03:20.649Z,2
2022-10-26T01:04:20.540Z,2
2022-10-26T01:05:20.537Z,2
2022-10-26T01:06:20.605Z,2
2022-10-26T01:08:20.540Z,2
2022-10-26T01:09:20.569Z,2
2022-10-26T01:10:20.620Z,2
2022-10-26T01:11:20.541Z,2
2022-10-26T01:12:20.635Z,2
2022-10-26T01:13:20.819Z,2
2022-10-26T01:14:20.752Z,2
2022-10-26T01:15:20.545Z,2
2022-10-26T01:16:20.551Z,2
2022-10-26T01:17:20.563Z,2
2022-10-26T01:18:20.544Z,2
2022-10-26T01:19:20.539Z,2
2022-10-26T01:20:20.537Z,2
2022-10-26T01:21:20.609Z,2
2022-10-26T01:22:20.673Z,2
2022-10-26T01:23:20.590Z,2
2022-10-26T01:24:20.547Z,2
2022-10-26T01:25:20.570Z,2
2022-10-26T01:26:20.559Z,2
2022-10-26T01:27:20.623Z,2
2022-10-26T01:28:20.603Z,2
2022-10-26T01:29:20.608Z,2
2022-10-26T01:30:20.585Z,2
2022-10-26T01:31:20.620Z,2
2022-10-26T01:32:20.639Z,2
2022-10-26T01:33:20.629Z,2
2022-10-26T01:34:20.539Z,2
2022-10-26T01:35:20.643Z,2
2022-10-26T01:36:20.721Z,2
2022-10-26T01:37:20.617Z,2
2022-10-26T01:38:20.579Z,2
2022-10-26T01:39:20.565Z,2
2022-10-26T01:40:20.590Z,2
2022-10-26T01:41:20.540Z,2
2022-10-26T01:42:20.607Z,2
2022-10-26T01:43:20.560Z,2
2022-10-26T01:44:20.552Z,2
2022-10-26T01:45:20.590Z,2
2022-10-26T01:46:20.619Z,2
2022-10-26T01:47:20.557Z,2
2022-10-26T01:48:20.622Z,2
2022-10-26T01:49:20.640Z,2
2022-10-26T01:50:20.564Z,2
2022-10-26T01:51:20.542Z,2
2022-10-26T01:52:20.558Z,2
2022-10-26T01:53:20.656Z,2
2022-10-26T01:54:20.538Z,2
2022-10-26T01:55:20.569Z,2
2022-10-26T01:56:20.567Z,2
2022-10-26T01:57:20.604Z,2
2022-10-26T01:58:20.543Z,2
2022-10-26T01:59:20.547Z,2
2022-10-26T02:00:20.634Z,2
2022-10-26T02:01:20.608Z,2
2022-10-26T02:02:20.565Z,2
2022-10-26T02:03:20.646Z,2
2022-10-26T02:04:20.627Z,2
2022-10-26T02:05:20.540Z,2
2022-10-26T02:06:20.536Z,2
2022-10-26T02:07:20.560Z,2
2022-10-26T02:08:20.594Z,2
2022-10-26T02:09:20.584Z,2
2022-10-26T02:10:20.567Z,2
2022-10-26T02:11:20.569Z,2
2022-10-26T02:12:20.582Z,2
2022-10-26T02:13:20.584Z,2
2022-10-26T02:14:20.551Z,2
2022-10-26T02:15:20.554Z,2
2022-10-26T02:16:20.595Z,2
2022-10-26T02:17:20.614Z,2
2022-10-26T02:18:20.547Z,2
2022-10-26T02:19:20.602Z,2
2022-10-26T02:20:20.632Z,2
2022-10-26T02:21:20.556Z,2
2022-10-26T02:22:20.649Z,2
2022-10-26T02:23:20.548Z,2
2022-10-26T02:24:20.648Z,2
2022-10-26T02:25:20.647Z,2
2022-10-26T02:26:20.555Z,2
2022-10-26T02:27:20.613Z,2
2022-10-26T02:28:20.601Z,2
2022-10-26T02:29:20.574Z,2
2022-10-26T02:30:20.591Z,2
2022-10-26T02:31:20.581Z,2
2022-10-26T02:32:20.619Z,2
2022-10-26T02:33:20.608Z,2
2022-10-26T02:34:20.613Z,2
2022-10-26T02:35:20.615Z,2
2022-10-26T02:36:20.622Z,2
2022-10-26T02:37:20.563Z,2
2022-10-26T02:38:20.650Z,2
2022-10-26T02:39:20.580Z,2
2022-10-26T02:40:20.671Z,2
2022-10-26T02:41:20.670Z,2
2022-10-26T02:42:20.703Z,2
2022-10-26T02:43:20.742Z,2
2022-10-26T02:44:20.646Z,2
2022-10-26T02:45:20.717Z,2
2022-10-26T02:46:20.553Z,2
2022-10-26T02:47:20.799Z,2
2022-10-26T02:48:20.711Z,2
2022-10-26T02:49:20.768Z,2
2022-10-26T02:50:20.807Z,2
2022-10-26T02:51:20.807Z,2
2022-10-26T02:52:20.763Z,2
2022-10-26T02:53:20.854Z,2
2022-10-26T02:54:20.931Z,2
2022-10-26T02:55:20.955Z,2
2022-10-26T02:56:21.063Z,3
2022-10-26T02:57:20.809Z,2
2022-10-26T02:58:20.567Z,2
2022-10-26T02:59:20.558Z,2
2022-10-26T03:00:20.610Z,2
2022-10-26T03:01:20.626Z,2
2022-10-26T03:02:20.610Z,2
2022-10-26T03:03:20.594Z,2
2022-10-26T03:04:20.652Z,2
2022-10-26T03:05:20.620Z,2
2022-10-26T03:06:20.617Z,2
2022-10-26T03:07:20.580Z,2
2022-10-26T03:08:20.605Z,2
2022-10-26T03:09:23.452Z,2
2022-10-26T03:10:20.663Z,2
2022-10-26T03:11:20.650Z,2
2022-10-26T03:12:20.660Z,2
2022-10-26T03:13:20.583Z,2
2022-10-26T03:14:20.571Z,2
2022-10-26T03:15:20.561Z,2
2022-10-26T03:16:20.571Z,2
2022-10-26T03:17:20.578Z,2
2022-10-26T03:18:20.695Z,3
2022-10-26T03:19:20.609Z,2
2022-10-26T03:20:20.579Z,2
2022-10-26T03:21:20.579Z,2
2022-10-26T03:22:20.566Z,2
2022-10-26T03:23:20.558Z,2
2022-10-26T03:24:20.562Z,2
2022-10-26T03:25:20.657Z,2
2022-10-26T03:26:20.617Z,2
2022-10-26T03:27:20.600Z,3
2022-10-26T03:28:20.551Z,2
2022-10-26T03:29:20.550Z,2
2022-10-26T03:30:20.556Z,2
2022-10-26T03:31:20.583Z,2
2022-10-26T03:32:20.577Z,2
2022-10-26T03:33:24.345Z,2
2022-10-26T03:34:20.613Z,2
2022-10-26T03:35:20.594Z,2
2022-10-26T03:36:20.563Z,2
2022-10-26T03:37:20.574Z,2
2022-10-26T03:38:20.599Z,2
2022-10-26T03:39:20.589Z,2
2022-10-26T03:40:20.577Z,2
2022-10-26T03:41:20.635Z,2
2022-10-26T03:42:20.599Z,2
2022-10-26T03:43:20.648Z,2
2022-10-26T03:44:20.579Z,2
2022-10-26T03:45:20.558Z,2
2022-10-26T03:46:20.550Z,2
2022-10-26T03:47:20.559Z,2
2022-10-26T03:48:20.551Z,2
2022-10-26T03:49:20.680Z,2
2022-10-26T03:50:20.586Z,2
2022-10-26T03:51:20.603Z,2
2022-10-26T03:52:20.574Z,2
2022-10-26T03:53:20.617Z,2
2022-10-26T03:54:20.568Z,2
2022-10-26T03:55:20.571Z,2
2022-10-26T03:56:20.565Z,2
2022-10-26T03:57:20.621Z,2
2022-10-26T03:58:20.643Z,2
2022-10-26T03:59:20.548Z,2
2022-10-26T04:00:20.556Z,2
2022-10-26T04:01:20.622Z,2
2022-10-26T04:02:20.604Z,2
2022-10-26T04:03:20.675Z,3
2022-10-26T04:04:20.724Z,2
2022-10-26T04:05:20.688Z,2
2022-10-26T04:06:20.691Z,2
2022-10-26T04:07:20.631Z,2
2022-10-26T04:08:20.549Z,2
2022-10-26T04:09:20.557Z,2
2022-10-26T04:10:20.569Z,2
2022-10-26T04:11:20.635Z,2
2022-10-26T04:12:20.578Z,2
2022-10-26T04:13:20.623Z,2
2022-10-26T04:14:20.627Z,2
2022-10-26T04:15:20.566Z,2
2022-10-26T04:16:20.561Z,2
2022-10-26T04:17:20.626Z,2
2022-10-26T04:18:20.553Z,2
2022-10-26T04:19:20.556Z,2
2022-10-26T04:20:20.633Z,2
2022-10-26T04:21:20.613Z,2
2022-10-26T04:22:20.575Z,2
2022-10-26T04:23:20.627Z,2
2022-10-26T04:24:20.556Z,2
2022-10-26T04:25:20.697Z,2
2022-10-26T04:26:20.861Z,2
2022-10-26T04:27:20.587Z,2
2022-10-26T04:28:20.592Z,2
2022-10-26T04:29:20.614Z,2
2022-10-26T04:30:20.673Z,2
2022-10-26T04:31:20.629Z,2
2022-10-26T04:32:20.572Z,2
2022-10-26T04:33:20.688Z,4
2022-10-26T04:34:20.558Z,3
2022-10-26T04:35:20.558Z,4
2022-10-26T04:36:20.602Z,4
2022-10-26T04:37:20.715Z,5
2022-10-26T04:38:20.577Z,4
2022-10-26T04:39:20.563Z,5
2022-10-26T04:40:20.587Z,7
2022-10-26T04:41:20.615Z,3
2022-10-26T04:42:20.642Z,2
2022-10-26T04:43:20.625Z,2
2022-10-26T04:44:20.628Z,2
2022-10-26T04:45:20.629Z,2
2022-10-26T04:46:20.559Z,2
2022-10-26T04:47:20.675Z,2
2022-10-26T04:48:20.748Z,2
2022-10-26T04:49:20.669Z,2
2022-10-26T04:50:22.798Z,2
2022-10-26T04:51:20.639Z,2
2022-10-26T04:52:20.625Z,2
2022-10-26T04:53:20.660Z,2
2022-10-26T04:54:20.812Z,2
2022-10-26T04:55:20.599Z,2
2022-10-26T04:56:20.615Z,2
2022-10-26T04:57:20.692Z,2
2022-10-26T04:58:20.783Z,2
2022-10-26T04:59:20.753Z,2
2022-10-26T05:00:20.745Z,2
2022-10-26T05:01:20.763Z,2
2022-10-26T05:02:21.025Z,2
2022-10-26T05:03:20.666Z,2
2022-10-26T05:04:20.585Z,4
2022-10-26T05:05:20.668Z,2
2022-10-26T05:06:20.559Z,2
2022-10-26T05:07:20.654Z,2
2022-10-26T05:08:20.608Z,2
2022-10-26T05:09:20.564Z,2
2022-10-26T05:10:20.624Z,2
2022-10-26T05:11:20.564Z,2
2022-10-26T05:12:20.565Z,2
2022-10-26T05:13:20.663Z,2
2022-10-26T05:14:20.623Z,2
2022-10-26T05:15:20.631Z,3
2022-10-26T05:16:20.635Z,2
2022-10-26T05:17:20.596Z,2
2022-10-26T05:18:20.570Z,2
2022-10-26T05:19:20.560Z,2
2022-10-26T05:20:20.557Z,2
2022-10-26T05:21:20.656Z,5
2022-10-26T05:22:20.715Z,3
2022-10-26T05:23:20.604Z,3
2022-10-26T05:24:20.927Z,2
2022-10-26T05:25:20.579Z,2
2022-10-26T05:26:20.601Z,2
2022-10-26T05:27:20.632Z,3
2022-10-26T05:28:20.564Z,2
2022-10-26T05:29:20.551Z,2
2022-10-26T05:30:20.586Z,2
2022-10-26T05:31:20.640Z,2
2022-10-26T05:32:20.584Z,2
2022-10-26T05:33:20.569Z,2
2022-10-26T05:34:20.596Z,2
2022-10-26T05:35:20.680Z,2
2022-10-26T05:36:20.586Z,2
2022-10-26T05:37:20.676Z,2
2022-10-26T05:38:20.773Z,2
2022-10-26T05:39:20.637Z,2
2022-10-26T05:40:20.618Z,3
2022-10-26T05:41:20.599Z,2
2022-10-26T05:42:20.569Z,3
2022-10-26T05:43:20.618Z,2
2022-10-26T05:44:20.608Z,2
2022-10-26T05:45:20.634Z,2
2022-10-26T05:46:20.603Z,2
2022-10-26T05:47:20.606Z,2
2022-10-26T05:48:20.569Z,2
2022-10-26T05:49:20.554Z,2
2022-10-26T05:50:20.648Z,2
2022-10-26T05:51:20.565Z,2
2022-10-26T05:52:20.662Z,2
2022-10-26T05:53:20.583Z,2
2022-10-26T05:54:20.609Z,2
2022-10-26T05:55:20.694Z,2
2022-10-26T05:56:20.553Z,2
2022-10-26T05:57:20.583Z,3
2022-10-26T05:58:20.587Z,3
2022-10-26T05:59:20.557Z,2
2022-10-26T06:00:20.570Z,2
2022-10-26T06:01:20.724Z,2
2022-10-26T06:02:20.799Z,2
2022-10-26T06:03:20.766Z,2
2022-10-26T06:04:20.566Z,2
2022-10-26T06:05:20.580Z,2
2022-10-26T06:06:20.607Z,2
2022-10-26T06:07:20.607Z,2
2022-10-26T06:08:20.671Z,2
2022-10-26T06:09:20.598Z,2
2022-10-26T06:10:20.639Z,2
2022-10-26T06:11:20.565Z,2
2022-10-26T06:12:20.584Z,2
2022-10-26T06:13:20.724Z,2
2022-10-26T06:14:20.573Z,2
2022-10-26T06:15:20.578Z,2
2022-10-26T06:16:20.593Z,2
2022-10-26T06:17:20.638Z,2
2022-10-26T06:18:20.606Z,2
2022-10-26T06:19:20.570Z,3
2022-10-26T06:20:20.583Z,3
2022-10-26T06:21:20.570Z,3
2022-10-26T06:22:20.594Z,2
2022-10-26T06:23:20.615Z,2
2022-10-26T06:24:20.571Z,4
2022-10-26T06:25:20.983Z,4
2022-10-26T06:26:20.622Z,4
2022-10-26T06:27:20.590Z,3
2022-10-26T06:28:20.640Z,3
2022-10-26T06:29:20.612Z,2
2022-10-26T06:30:20.600Z,2
2022-10-26T06:31:20.571Z,2
2022-10-26T06:32:20.569Z,4
2022-10-26T06:33:36.024Z,4
2022-10-26T06:34:20.565Z,3
2022-10-26T06:35:20.563Z,5
2022-10-26T06:36:20.569Z,5
2022-10-26T06:37:20.609Z,4
2022-10-26T06:38:20.561Z,2
2022-10-26T06:39:20.572Z,3
2022-10-26T06:40:20.636Z,4
2022-10-26T06:41:20.641Z,5
2022-10-26T06:42:20.603Z,4
2022-10-26T06:43:20.570Z,5
2022-10-26T06:44:20.581Z,5
2022-10-26T06:45:20.588Z,4
2022-10-26T06:46:20.571Z,4
2022-10-26T06:47:23.442Z,2
2022-10-26T06:48:20.627Z,2
2022-10-26T06:49:20.729Z,3
2022-10-26T06:50:20.575Z,2
2022-10-26T06:51:20.600Z,2
2022-10-26T06:52:20.600Z,2
2022-10-26T06:53:20.582Z,3
2022-10-26T06:54:20.561Z,3
2022-10-26T06:55:20.597Z,2
2022-10-26T06:56:20.614Z,2
2022-10-26T06:57:20.643Z,3
2022-10-26T06:58:20.560Z,3
2022-10-26T06:59:20.567Z,3
2022-10-26T07:00:20.648Z,3
2022-10-26T07:01:20.883Z,3
2022-10-26T07:02:21.175Z,3
2022-10-26T07:03:20.896Z,3
2022-10-26T07:04:20.880Z,3
2022-10-26T07:05:20.619Z,3
2022-10-26T07:06:20.672Z,2
2022-10-26T07:07:20.616Z,2
2022-10-26T07:08:20.651Z,3
2022-10-26T07:09:20.653Z,2
2022-10-26T07:10:20.598Z,2
2022-10-26T07:11:20.567Z,2
2022-10-26T07:12:20.622Z,3
2022-10-26T07:13:20.573Z,3
2022-10-26T07:14:20.569Z,2
2022-10-26T07:15:20.571Z,2
2022-10-26T07:16:20.581Z,3
2022-10-26T07:17:20.601Z,3
2022-10-26T07:18:20.580Z,2
2022-10-26T07:19:20.600Z,2
2022-10-26T07:20:20.609Z,2
2022-10-26T07:21:20.565Z,2
2022-10-26T07:22:20.636Z,3
2022-10-26T07:23:20.629Z,2
2022-10-26T07:24:20.596Z,2
2022-10-26T07:25:20.690Z,2
2022-10-26T07:26:20.570Z,2
2022-10-26T07:27:20.635Z,3
2022-10-26T07:28:20.614Z,2
2022-10-26T07:29:20.577Z,2
2022-10-26T07:30:20.613Z,2
2022-10-26T07:31:20.579Z,2
2022-10-26T07:32:20.584Z,2
2022-10-26T07:33:20.579Z,2
2022-10-26T07:34:20.572Z,2
2022-10-26T07:35:20.633Z,2
2022-10-26T07:36:20.714Z,3
2022-10-26T07:37:20.600Z,3
2022-10-26T07:38:20.565Z,3
2022-10-26T07:39:20.628Z,2
2022-10-26T07:41:20.585Z,2
2022-10-26T07:42:20.669Z,2
2022-10-26T07:43:20.621Z,2
2022-10-26T07:44:20.664Z,2
2022-10-26T07:45:20.676Z,2
2022-10-26T07:46:20.568Z,2
2022-10-26T07:47:20.578Z,3
2022-10-26T07:48:20.584Z,2
2022-10-26T07:49:21.349Z,2
2022-10-26T07:50:20.607Z,3
2022-10-26T07:51:20.616Z,2
2022-10-26T07:52:20.587Z,2
2022-10-26T07:53:24.010Z,2
2022-10-26T07:54:20.575Z,2
2022-10-26T07:55:20.748Z,2
2022-10-26T07:56:20.573Z,2
2022-10-26T07:57:20.659Z,3
2022-10-26T07:58:20.631Z,2
2022-10-26T07:59:20.655Z,2
2022-10-26T08:00:20.656Z,3
2022-10-26T08:01:20.737Z,2
2022-10-26T08:02:20.595Z,2
2022-10-26T08:03:20.572Z,3
2022-10-26T08:04:20.578Z,2
2022-10-26T08:05:20.671Z,2
2022-10-26T08:06:20.701Z,4
2022-10-26T08:07:20.716Z,4
2022-10-26T08:08:20.611Z,2
2022-10-26T08:09:20.617Z,3
2022-10-26T08:10:20.666Z,2
2022-10-26T08:11:20.630Z,2
2022-10-26T08:12:20.637Z,2
2022-10-26T08:13:20.592Z,2
2022-10-26T08:14:20.656Z,3
2022-10-26T08:15:20.651Z,2
2022-10-26T08:16:20.663Z,2
2022-10-26T08:17:20.683Z,3
2022-10-26T08:18:20.671Z,2
2022-10-26T08:19:20.682Z,2
2022-10-26T08:20:20.777Z,2
2022-10-26T08:21:30.396Z,3
2022-10-26T08:22:20.647Z,2
2022-10-26T08:23:20.606Z,2
2022-10-26T08:24:20.579Z,3
2022-10-26T08:25:21.554Z,2
2022-10-26T08:26:20.644Z,3
2022-10-26T08:27:20.647Z,3
2022-10-26T08:28:20.565Z,3
2022-10-26T08:29:20.630Z,2
2022-10-26T08:30:20.747Z,2
2022-10-26T08:31:20.663Z,2
2022-10-26T08:32:20.688Z,2
2022-10-26T08:33:20.679Z,2
2022-10-26T08:34:20.599Z,2
2022-10-26T08:35:20.585Z,2
2022-10-26T08:36:20.576Z,3
2022-10-26T08:37:20.660Z,2
2022-10-26T08:38:20.705Z,2
2022-10-26T08:39:20.614Z,2
2022-10-26T08:40:20.693Z,3
2022-10-26T08:41:20.619Z,2
2022-10-26T08:42:20.648Z,2
2022-10-26T08:43:20.741Z,2
2022-10-26T08:44:20.579Z,2
2022-10-26T08:45:24.251Z,2
2022-10-26T08:46:20.663Z,2
2022-10-26T08:47:20.609Z,2
2022-10-26T08:48:20.585Z,2
2022-10-26T08:49:20.579Z,2
2022-10-26T08:50:20.651Z,2
2022-10-26T08:51:20.579Z,2
2022-10-26T08:52:20.625Z,3
2022-10-26T08:53:20.634Z,2
2022-10-26T08:54:20.579Z,2
2022-10-26T08:55:20.626Z,2
2022-10-26T08:56:20.625Z,2
2022-10-26T08:57:20.624Z,2
2022-10-26T08:58:20.627Z,2
2022-10-26T08:59:20.633Z,2
2022-10-26T09:00:20.639Z,2
2022-10-26T09:01:20.756Z,2
2022-10-26T09:02:20.752Z,3
2022-10-26T09:03:20.757Z,2
2022-10-26T09:04:20.931Z,2
2022-10-26T09:05:20.641Z,2
2022-10-26T09:06:20.584Z,2
2022-10-26T09:07:20.597Z,2
2022-10-26T09:08:20.644Z,2
2022-10-26T09:09:20.613Z,3
2022-10-26T09:10:20.773Z,3
2022-10-26T09:11:20.706Z,2
2022-10-26T09:12:20.646Z,2
2022-10-26T09:13:20.588Z,2
2022-10-26T09:14:20.584Z,2
2022-10-26T09:15:20.590Z,2
2022-10-26T09:16:20.641Z,2
2022-10-26T09:17:20.626Z,2
2022-10-26T09:18:20.583Z,3
2022-10-26T09:19:20.575Z,2
2022-10-26T09:20:20.584Z,2
2022-10-26T09:21:20.588Z,2
2022-10-26T09:22:20.683Z,2
2022-10-26T09:23:20.681Z,2
2022-10-26T09:24:20.637Z,2
2022-10-26T09:25:20.635Z,2
2022-10-26T09:26:20.592Z,2
2022-10-26T09:27:20.620Z,2
2022-10-26T09:28:20.715Z,2
2022-10-26T09:29:20.591Z,2
2022-10-26T09:30:20.632Z,2
2022-10-26T09:31:20.588Z,2
2022-10-26T09:32:20.641Z,2
2022-10-26T09:33:20.659Z,3
2022-10-26T09:34:20.641Z,2
2022-10-26T09:35:20.652Z,2
2022-10-26T09:36:20.601Z,2
2022-10-26T09:37:20.701Z,2
2022-10-26T09:38:20.693Z,2
2022-10-26T09:39:20.708Z,2
2022-10-26T09:40:20.654Z,2
2022-10-26T09:41:20.709Z,9
2022-10-26T09:42:20.622Z,2
2022-10-26T09:43:20.640Z,2
2022-10-26T09:44:20.613Z,2
2022-10-26T09:45:20.624Z,3
2022-10-26T09:46:20.634Z,3
2022-10-26T09:47:20.686Z,3
2022-10-26T09:48:20.643Z,3
2022-10-26T09:49:20.656Z,3
2022-10-26T09:50:20.674Z,3
2022-10-26T09:51:20.588Z,2
2022-10-26T09:52:20.680Z,2
2022-10-26T09:53:20.680Z,3
2022-10-26T09:54:20.601Z,3
2022-10-26T09:55:20.656Z,3
2022-10-26T09:56:20.688Z,2
2022-10-26T09:57:20.626Z,3
2022-10-26T09:58:20.614Z,2
2022-10-26T09:59:20.596Z,3
2022-10-26T10:00:20.684Z,3
2022-10-26T10:01:20.645Z,3
2022-10-26T10:02:20.628Z,2
2022-10-26T10:03:20.765Z,2
2022-10-26T10:04:20.590Z,2
2022-10-26T10:05:32.568Z,2
2022-10-26T10:06:20.589Z,2
2022-10-26T10:07:20.648Z,2
2022-10-26T10:08:20.675Z,2
2022-10-26T10:09:20.671Z,2
2022-10-26T10:10:20.660Z,3
2022-10-26T10:11:20.680Z,2
2022-10-26T10:12:20.705Z,3
2022-10-26T10:13:20.591Z,3
2022-10-26T10:14:20.626Z,3
2022-10-26T10:15:20.595Z,2
2022-10-26T10:16:20.604Z,2
2022-10-26T10:17:20.636Z,3
2022-10-26T10:18:20.761Z,3
2022-10-26T10:19:20.634Z,2
2022-10-26T10:20:20.640Z,2
2022-10-26T10:21:20.647Z,2
2022-10-26T10:22:20.670Z,2
2022-10-26T10:23:20.958Z,2
2022-10-26T10:24:20.638Z,2
2022-10-26T10:25:20.663Z,2
2022-10-26T10:26:20.683Z,2
2022-10-26T10:27:20.682Z,2
2022-10-26T10:29:20.700Z,2
2022-10-26T10:30:20.705Z,2
2022-10-26T10:31:20.612Z,2
2022-10-26T10:32:20.610Z,2
2022-10-26T10:33:20.634Z,2
2022-10-26T10:34:20.676Z,3
2022-10-26T10:35:20.677Z,2
2022-10-26T10:36:20.666Z,3
2022-10-26T10:37:20.613Z,2
2022-10-26T10:38:20.661Z,2
2022-10-26T10:39:20.707Z,2
2022-10-26T10:40:20.753Z,2
2022-10-26T10:41:20.623Z,2
2022-10-26T10:42:20.662Z,2
2022-10-26T10:43:20.599Z,2
2022-10-26T10:44:20.601Z,2
2022-10-26T10:45:20.735Z,2
2022-10-26T10:46:20.612Z,2
2022-10-26T10:47:20.626Z,2
2022-10-26T10:48:20.629Z,2
2022-10-26T10:49:20.738Z,2
2022-10-26T10:50:20.727Z,2
2022-10-26T10:51:20.595Z,2
2022-10-26T10:52:20.678Z,2
2022-10-26T10:53:20.610Z,2
2022-10-26T10:54:20.600Z,2
2022-10-26T10:55:20.655Z,2
2022-10-26T10:56:20.616Z,2
2022-10-26T10:57:20.685Z,2
2022-10-26T10:58:20.891Z,2
2022-10-26T10:59:20.679Z,2
2022-10-26T11:00:20.813Z,2
2022-10-26T11:01:20.769Z,2
2022-10-26T11:02:20.964Z,2
2022-10-26T11:03:24.931Z,2
2022-10-26T11:04:20.611Z,2
2022-10-26T11:05:23.375Z,2
2022-10-26T11:06:20.604Z,2
2022-10-26T11:07:20.641Z,2
2022-10-26T11:08:20.647Z,2
2022-10-26T11:09:20.757Z,2
2022-10-26T11:10:20.643Z,2
2022-10-26T11:11:20.667Z,2
2022-10-26T11:12:20.625Z,2
2022-10-26T11:13:20.659Z,2
2022-10-26T11:14:20.615Z,2
2022-10-26T11:15:20.691Z,2
2022-10-26T11:16:20.723Z,2
2022-10-26T11:17:20.714Z,3
2022-10-26T11:18:20.604Z,2
2022-10-26T11:19:20.725Z,8
2022-10-26T11:20:20.717Z,2
2022-10-26T11:21:20.648Z,3
2022-10-26T11:22:20.633Z,2
2022-10-26T11:23:20.609Z,5
2022-10-26T11:24:20.615Z,9
2022-10-26T11:25:20.633Z,3
2022-10-26T11:26:20.618Z,2
2022-10-26T11:27:20.640Z,1
2022-10-26T11:28:20.665Z,2
2022-10-26T11:29:20.665Z,1
2022-10-26T11:30:20.605Z,6
2022-10-26T11:31:20.697Z,1
2022-10-26T11:32:20.638Z,1
2022-10-26T11:33:20.628Z,1
2022-10-26T11:34:20.653Z,1
2022-10-26T11:35:20.620Z,1
2022-10-26T11:36:22.044Z,2
2022-10-26T11:37:20.668Z,1
2022-10-26T11:38:28.089Z,1
2022-10-26T11:39:20.624Z,1
2022-10-26T11:40:20.627Z,1
2022-10-26T11:41:20.618Z,1
2022-10-26T11:42:20.633Z,1
2022-10-26T11:43:20.663Z,2
2022-10-26T11:44:20.661Z,1
2022-10-26T11:45:20.603Z,1
2022-10-26T11:46:20.611Z,1
2022-10-26T11:47:20.644Z,1
2022-10-26T11:48:20.607Z,1
2022-10-26T11:49:20.620Z,1
2022-10-26T11:50:20.614Z,1
2022-10-26T11:51:20.673Z,1
2022-10-26T11:52:20.639Z,1
2022-10-26T11:53:20.603Z,1
2022-10-26T11:55:20.637Z,1
2022-10-26T11:56:20.624Z,1
2022-10-26T11:57:20.616Z,2
2022-10-26T11:58:20.667Z,1
2022-10-26T11:59:20.785Z,1
2022-10-26T12:00:20.619Z,1
2022-10-26T12:01:20.653Z,1
2022-10-26T12:02:20.621Z,1
2022-10-26T12:03:20.694Z,1
2022-10-26T12:04:20.615Z,1
2022-10-26T12:05:20.713Z,1
2022-10-26T12:06:20.715Z,1
2022-10-26T12:07:20.737Z,1
2022-10-26T12:08:20.719Z,1
2022-10-26T12:09:20.662Z,2
2022-10-26T12:10:23.729Z,1
2022-10-26T12:11:20.626Z,1
2022-10-26T12:12:20.655Z,1
2022-10-26T12:13:20.614Z,1
2022-10-26T12:14:20.673Z,1
2022-10-26T12:15:20.622Z,1
2022-10-26T12:16:20.647Z,1
2022-10-26T12:17:20.631Z,1
2022-10-26T12:18:36.826Z,1
2022-10-26T12:19:20.795Z,1
2022-10-26T12:20:20.700Z,1
2022-10-26T12:21:20.630Z,2
2022-10-26T12:22:20.677Z,2
2022-10-26T12:23:33.829Z,1
2022-10-26T12:24:20.657Z,1
2022-10-26T12:25:20.632Z,1
2022-10-26T12:26:20.613Z,1
2022-10-26T12:27:20.643Z,1
2022-10-26T12:28:20.632Z,1
2022-10-26T12:29:20.651Z,1
2022-10-26T12:30:20.671Z,1
2022-10-26T12:31:20.722Z,1
2022-10-26T12:32:20.636Z,1
2022-10-26T12:33:20.690Z,1
2022-10-26T12:34:20.610Z,1
2022-10-26T12:35:20.691Z,1
2022-10-26T12:36:20.701Z,1
2022-10-26T12:37:20.712Z,1
2022-10-26T12:38:20.658Z,1
2022-10-26T12:39:20.718Z,1
2022-10-26T12:40:20.751Z,1
2022-10-26T12:41:20.652Z,1
2022-10-26T12:42:20.636Z,1
2022-10-26T12:43:20.739Z,1
2022-10-26T12:44:20.625Z,1
2022-10-26T12:45:20.679Z,1
2022-10-26T12:46:20.670Z,1
2022-10-26T12:47:20.676Z,1
2022-10-26T12:48:27.932Z,1
2022-10-26T12:49:20.701Z,1
2022-10-26T12:50:20.618Z,1
2022-10-26T12:51:20.631Z,1
2022-10-26T12:52:20.711Z,1
2022-10-26T12:53:20.665Z,1
2022-10-26T12:54:20.705Z,1
2022-10-26T12:55:20.637Z,1
2022-10-26T12:56:20.615Z,1
2022-10-26T12:57:20.686Z,1
2022-10-26T12:58:20.737Z,1
2022-10-26T12:59:20.637Z,1
2022-10-26T13:00:20.684Z,1
2022-10-26T13:01:20.787Z,1
2022-10-26T13:02:20.635Z,1
2022-10-26T13:03:20.769Z,1
2022-10-26T13:04:20.619Z,1
2022-10-26T13:05:20.619Z,1
2022-10-26T13:06:20.681Z,1
2022-10-26T13:07:20.647Z,1
2022-10-26T13:08:20.690Z,1
2022-10-26T13:09:21.083Z,2
2022-10-26T13:10:20.643Z,1
2022-10-26T13:11:20.712Z,1
2022-10-26T13:12:20.656Z,2
2022-10-26T13:13:20.630Z,1
2022-10-26T13:14:20.679Z,1
2022-10-26T13:15:20.652Z,1
2022-10-26T13:16:20.639Z,1
2022-10-26T13:17:20.723Z,1
2022-10-26T13:18:20.618Z,1
2022-10-26T13:19:23.249Z,1
2022-10-26T13:20:20.648Z,1
2022-10-26T13:21:20.680Z,1
2022-10-26T13:22:20.632Z,1
2022-10-26T13:23:20.650Z,1
2022-10-26T13:24:20.618Z,1
2022-10-26T13:25:20.727Z,1
2022-10-26T13:26:20.704Z,1
2022-10-26T13:27:20.643Z,1
2022-10-26T13:28:20.700Z,1
2022-10-26T13:29:20.675Z,1
2022-10-26T13:30:20.635Z,1
2022-10-26T13:31:20.761Z,1
2022-10-26T13:32:20.648Z,1
2022-10-26T13:33:20.638Z,1
2022-10-26T13:34:20.710Z,1
2022-10-26T13:35:20.634Z,1
2022-10-26T13:36:20.770Z,1
2022-10-26T13:37:20.790Z,1
2022-10-26T13:38:20.642Z,1
2022-10-26T13:39:20.642Z,1
2022-10-26T13:40:20.715Z,1
2022-10-26T13:41:20.638Z,1
2022-10-26T13:42:20.737Z,1
2022-10-26T13:43:20.721Z,1
2022-10-26T13:44:22.440Z,1
2022-10-26T13:45:20.650Z,1
2022-10-26T13:46:20.643Z,1
2022-10-26T13:47:20.669Z,1
2022-10-26T13:48:20.665Z,1
2022-10-26T13:49:20.701Z,1
2022-10-26T13:50:20.663Z,1
2022-10-26T13:51:20.710Z,1
2022-10-26T13:52:20.788Z,1
2022-10-26T13:53:20.633Z,1
2022-10-26T13:54:20.630Z,1
2022-10-26T13:55:20.716Z,1
2022-10-26T13:56:20.635Z,1
2022-10-26T13:57:20.717Z,1
2022-10-26T13:58:20.702Z,1
2022-10-26T13:59:20.726Z,1
2022-10-26T14:00:20.641Z,1
2022-10-26T14:01:20.719Z,1
2022-10-26T14:02:20.654Z,1
2022-10-26T14:03:20.638Z,1
2022-10-26T14:04:20.663Z,1
2022-10-26T14:05:20.753Z,1
2022-10-26T14:06:20.711Z,1
2022-10-26T14:07:20.802Z,1
2022-10-26T14:08:20.672Z,1
2022-10-26T14:09:20.687Z,1
2022-10-26T14:10:20.694Z,1
2022-10-26T14:11:20.686Z,1
2022-10-26T14:12:20.666Z,1
2022-10-26T14:13:20.694Z,1
2022-10-26T14:14:20.689Z,1
2022-10-26T14:15:20.647Z,1
2022-10-26T14:16:20.631Z,1
2022-10-26T14:17:20.732Z,1
2022-10-26T14:18:20.685Z,0
2022-10-26T14:19:20.669Z,1
2022-10-26T14:20:20.739Z,1
2022-10-26T14:21:20.670Z,1
2022-10-26T14:22:23.114Z,0
2022-10-26T14:23:20.630Z,0
2022-10-26T14:24:24.625Z,1
2022-10-26T14:25:26.715Z,1
2022-10-26T14:26:20.629Z,0
2022-10-26T14:27:20.713Z,1
2022-10-26T14:28:20.676Z,1
2022-10-26T14:29:20.636Z,0
2022-10-26T14:30:23.102Z,1
2022-10-26T14:31:20.655Z,1
2022-10-26T14:32:20.648Z,1
2022-10-26T14:33:20.744Z,1
2022-10-26T14:34:20.649Z,1
2022-10-26T14:35:20.708Z,0
2022-10-26T14:36:20.753Z,0
2022-10-26T14:37:20.660Z,1
2022-10-26T14:38:20.641Z,1
2022-10-26T14:39:20.767Z,1
2022-10-26T14:40:20.694Z,1
2022-10-26T14:41:20.643Z,1
2022-10-26T14:42:20.652Z,1
2022-10-26T14:43:20.688Z,1
2022-10-26T14:44:20.650Z,0
2022-10-26T14:45:29.372Z,1
2022-10-26T14:46:20.710Z,1
2022-10-26T14:47:20.662Z,1
2022-10-26T14:48:20.647Z,0
2022-10-26T14:49:20.740Z,1
2022-10-26T14:50:20.838Z,1
2022-10-26T14:51:20.690Z,1